Time;durP1;ratioP1;P1;durP2;ratioP2;P2;SDS_P1;SDS_P2;PMS_P1;PMS_P2;Temp;Humidity;BMP_temperature;BMP_pressure;BME280_temperature;BME280_humidity;BME280_pressure;Samples;Min_cycle;Max_cycle;Signal;HPM_P1;HPM_P2
2024/02/20 00:00:13;;;;;;;14.48;7.40;;;;;;;8.28;83.68;101468.19;2518195;28;20049;-78
2024/02/20 00:01:28;;;;;;;13.18;7.10;;;;;;;8.28;83.40;101463.84;2516026;28;20096;-79
2024/02/20 00:02:41;;;;;;;12.95;7.15;;;;;;;8.26;83.60;101470.78;2521597;28;20383;-78
2024/02/20 00:03:56;;;;;;;11.50;7.00;;;;;;;8.26;83.72;101464.69;2522075;28;20116;-78
2024/02/20 00:05:10;;;;;;;11.43;7.00;;;;;;;8.28;83.64;101468.19;2517472;28;20061;-78
2024/02/20 00:06:24;;;;;;;11.10;5.85;;;;;;;8.27;83.59;101466.44;2512670;28;20434;-79
2024/02/20 00:07:38;;;;;;;11.77;6.57;;;;;;;8.28;83.44;101473.38;2512766;28;20050;-78
2024/02/20 00:08:52;;;;;;;8.43;5.63;;;;;;;8.27;83.65;101466.44;2522570;28;20054;-78
2024/02/20 00:10:09;;;;;;;9.05;6.05;;;;;;;8.26;83.58;101465.59;2523565;28;20046;-79
2024/02/20 00:11:23;;;;;;;8.98;6.50;;;;;;;8.27;83.29;101474.25;2517021;28;20054;-78
2024/02/20 00:12:37;;;;;;;11.85;6.07;;;;;;;8.25;83.15;101466.41;2521670;28;20410;-78
2024/02/20 00:13:52;;;;;;;10.18;6.47;;;;;;;8.25;83.30;101469.00;2514742;28;20125;-78
2024/02/20 00:15:06;;;;;;;7.97;4.93;;;;;;;8.25;83.18;101475.94;2518546;28;20526;-78
2024/02/20 00:16:22;;;;;;;12.73;6.13;;;;;;;8.24;83.27;101467.28;2518464;28;20132;-78
2024/02/20 00:17:36;;;;;;;10.57;6.80;;;;;;;8.24;83.16;101472.47;2514416;28;20411;-78
2024/02/20 00:18:51;;;;;;;8.65;5.80;;;;;;;8.23;83.07;101472.44;2521178;28;20085;-78
2024/02/20 00:20:05;;;;;;;8.27;5.78;;;;;;;8.22;83.00;101465.50;2513085;28;20050;-78
2024/02/20 00:21:20;;;;;;;10.80;6.60;;;;;;;8.21;82.91;101467.25;2519770;28;20057;-78
2024/02/20 00:22:33;;;;;;;9.15;5.97;;;;;;;8.20;82.88;101460.28;2525015;28;20144;-78
2024/02/20 00:23:48;;;;;;;8.88;5.78;;;;;;;8.20;83.14;101465.47;2516952;28;20564;-78
2024/02/20 00:25:02;;;;;;;14.27;6.80;;;;;;;8.18;82.95;101461.97;2521439;28;20077;-78
2024/02/20 00:26:18;;;;;;;9.32;5.28;;;;;;;8.18;83.02;101464.56;2521328;28;20050;-78
2024/02/20 00:27:32;;;;;;;7.97;5.32;;;;;;;8.18;83.13;101467.16;2525008;28;20077;-77
2024/02/20 00:28:46;;;;;;;8.95;5.05;;;;;;;8.17;82.82;101470.63;2515862;28;20057;-77
2024/02/20 00:30:00;;;;;;;7.97;5.05;;;;;;;8.17;83.16;101465.44;2523850;28;20041;-78
2024/02/20 00:31:15;;;;;;;9.63;5.78;;;;;;;8.15;83.18;101472.34;2519197;28;20042;-77
2024/02/20 00:32:29;;;;;;;8.38;5.53;;;;;;;8.14;82.90;101472.34;2521059;28;20045;-78
2024/02/20 00:33:43;;;;;;;12.73;5.85;;;;;;;8.13;83.01;101463.66;2516051;28;20046;-78
2024/02/20 00:34:57;;;;;;;10.45;5.88;;;;;;;8.11;82.86;101470.56;2521803;28;20050;-78
2024/02/20 00:36:11;;;;;;;15.30;7.07;;;;;;;8.09;82.82;101464.47;2518864;28;20052;-78
2024/02/20 00:37:25;;;;;;;10.05;5.25;;;;;;;8.06;82.89;101465.28;2524368;28;20049;-78
2024/02/20 00:38:39;;;;;;;9.52;5.32;;;;;;;8.05;82.92;101463.56;2524171;28;20204;-78
2024/02/20 00:39:54;;;;;;;8.73;6.03;;;;;;;8.05;82.99;101473.03;2521193;28;21014;-78
2024/02/20 00:41:08;;;;;;;6.22;4.82;;;;;;;8.04;82.92;101466.97;2518130;28;20050;-78
2024/02/20 00:42:23;;;;;;;15.85;7.00;;;;;;;8.03;83.01;101465.25;2518348;28;20046;-78
2024/02/20 00:43:37;;;;;;;9.18;6.20;;;;;;;8.03;83.06;101456.56;2514418;28;20057;-78
2024/02/20 00:44:51;;;;;;;11.73;5.72;;;;;;;8.02;83.14;101460.88;2524437;28;20049;-78
2024/02/20 00:46:05;;;;;;;9.07;4.40;;;;;;;8.02;82.93;101467.81;2523904;28;20133;-78
2024/02/20 00:47:19;;;;;;;11.07;5.05;;;;;;;8.00;83.08;101461.72;2524011;28;20042;-78
2024/02/20 00:48:33;;;;;;;9.93;7.07;;;;;;;7.98;83.03;101460.84;2523167;28;20129;-78
2024/02/20 00:49:46;;;;;;;6.30;5.03;;;;;;;7.95;82.94;101459.06;2522870;28;20053;-78
2024/02/20 00:51:01;;;;;;;8.05;6.00;;;;;;;7.93;82.99;101459.91;2518026;28;20484;-78
2024/02/20 00:52:14;;;;;;;12.38;5.13;;;;;;;7.92;82.96;101466.78;2518865;28;20049;-78
2024/02/20 00:53:29;;;;;;;10.18;6.32;;;;;;;7.91;83.00;101464.19;2521462;28;20052;-78
2024/02/20 00:54:42;;;;;;;9.52;5.00;;;;;;;7.90;83.14;101467.63;2516327;28;20699;-78
2024/02/20 00:55:57;;;;;;;8.80;4.95;;;;;;;7.90;83.11;101463.31;2521500;28;20086;-78
2024/02/20 00:57:11;;;;;;;10.35;5.53;;;;;;;7.91;83.20;101466.78;2519151;28;20050;-78
2024/02/20 00:58:27;;;;;;;10.07;5.97;;;;;;;7.89;83.08;101460.69;2517851;28;20074;-78
2024/02/20 00:59:40;;;;;;;7.95;5.32;;;;;;;7.88;83.13;101458.94;2514475;28;20050;-79
2024/02/20 01:00:55;;;;;;;13.05;5.07;;;;;;;7.84;83.14;101456.28;2524444;28;20046;-79
2024/02/20 01:02:10;;;;;;;10.68;4.60;;;;;;;7.83;83.05;101458.88;2524782;28;20057;-78
2024/02/20 01:03:24;;;;;;;10.45;5.40;;;;;;;7.80;82.80;101458.81;2524352;28;20054;-78
2024/02/20 01:04:38;;;;;;;11.75;4.97;;;;;;;7.77;82.92;101462.25;2515568;28;20038;-78
2024/02/20 01:05:53;;;;;;;8.52;5.40;;;;;;;7.75;82.91;101458.75;2522703;28;20054;-79
2024/02/20 01:07:07;;;;;;;8.55;4.95;;;;;;;7.73;83.09;101460.44;2518384;28;20066;-78
2024/02/20 01:08:21;;;;;;;8.82;5.03;;;;;;;7.72;82.97;101458.69;2523965;28;20120;-78
2024/02/20 01:09:35;;;;;;;7.82;5.70;;;;;;;7.70;82.96;101462.13;2524883;28;20050;-78
2024/02/20 01:10:49;;;;;;;7.32;5.03;;;;;;;7.68;83.16;101464.69;2526677;28;20046;-79
2024/02/20 01:12:03;;;;;;;8.60;5.40;;;;;;;7.65;83.24;101459.44;2522307;28;20050;-79
2024/02/20 01:13:18;;;;;;;6.57;5.32;;;;;;;7.63;83.14;101464.59;2521927;28;20041;-78
2024/02/20 01:14:33;;;;;;;12.48;5.30;;;;;;;7.60;83.14;101467.16;2525959;28;20046;-78
2024/02/20 01:15:47;;;;;;;7.75;4.88;;;;;;;7.57;83.29;101466.25;2516545;28;20139;-79
2024/02/20 01:17:00;;;;;;;9.82;4.30;;;;;;;7.54;83.16;101474.00;2519707;28;20050;-79
2024/02/20 01:18:15;;;;;;;10.27;5.03;;;;;;;7.50;83.12;101470.44;2520823;28;20046;-79
2024/02/20 01:19:28;;;;;;;11.30;5.30;;;;;;;7.46;83.11;101478.16;2523370;28;20046;-78
2024/02/20 01:20:43;;;;;;;7.97;5.05;;;;;;;7.40;83.27;101466.81;2517205;28;20117;-78
2024/02/20 01:21:56;;;;;;;11.35;5.50;;;;;;;7.35;83.09;101475.38;2519648;28;20057;-78
2024/02/20 01:23:11;;;;;;;10.35;5.07;;;;;;;7.31;83.16;101476.19;2526754;28;20402;-79
2024/02/20 01:24:24;;;;;;;11.90;6.47;;;;;;;7.25;82.96;101471.72;2525318;28;20053;-78
2024/02/20 01:25:39;;;;;;;8.60;4.75;;;;;;;7.21;83.15;101477.72;2525956;28;20422;-78
2024/02/20 01:26:52;;;;;;;8.73;4.95;;;;;;;7.17;83.10;101475.91;2522524;28;20069;-78
2024/02/20 01:28:07;;;;;;;7.65;6.10;;;;;;;7.11;83.38;101470.63;2515975;28;20043;-79
2024/02/20 01:29:21;;;;;;;9.95;6.55;;;;;;;7.06;83.12;101482.63;2516418;28;20413;-79
2024/02/20 01:30:37;;;;;;;6.82;4.95;;;;;;;7.02;83.21;101486.00;2516236;28;20054;-78
2024/02/20 01:31:50;;;;;;;5.97;4.32;;;;;;;6.96;83.51;101482.44;2524614;28;20050;-78
2024/02/20 01:33:06;;;;;;;5.53;4.93;;;;;;;6.93;83.39;101481.53;2524409;28;20052;-78
2024/02/20 01:34:19;;;;;;;9.55;5.68;;;;;;;6.89;83.66;101485.78;2523077;28;20100;-77
2024/02/20 01:35:34;;;;;;;9.43;5.18;;;;;;;6.87;83.76;101486.59;2523443;28;20084;-77
2024/02/20 01:36:49;;;;;;;6.20;5.40;;;;;;;6.82;83.88;101483.91;2521921;28;20487;-78
2024/02/20 01:38:03;;;;;;;12.02;5.00;;;;;;;6.80;83.84;101484.72;2516758;28;20441;-78
2024/02/20 01:39:17;;;;;;;9.75;5.43;;;;;;;6.76;83.66;101488.94;2523705;28;20526;-77
2024/02/20 01:40:32;;;;;;;17.10;5.57;;;;;;;6.71;83.79;101483.69;2522724;28;20044;-78
2024/02/20 01:41:47;;;;;;;5.97;4.97;;;;;;;6.69;83.74;101487.09;2515192;28;20052;-78
2024/02/20 01:43:02;;;;;;;9.65;4.85;;;;;;;6.63;83.76;101487.81;2520339;28;20097;-78
2024/02/20 01:44:16;;;;;;;11.93;7.50;;;;;;;6.60;83.64;101489.50;2517229;28;20038;-78
2024/02/20 01:45:31;;;;;;;8.75;5.00;;;;;;;6.55;84.08;101495.44;2523399;28;20403;-78
2024/02/20 01:46:46;;;;;;;8.48;5.88;;;;;;;6.50;83.91;101491.88;2515096;28;20069;-77
2024/02/20 01:48:02;;;;;;;7.30;4.75;;;;;;;6.46;83.99;101494.41;2520503;28;20416;-77
2024/02/20 01:49:16;;;;;;;9.02;6.03;;;;;;;6.43;84.15;101492.59;2518796;28;20491;-77
2024/02/20 01:50:33;;;;;;;8.05;6.05;;;;;;;6.42;84.42;101496.03;2516266;28;20046;-78
2024/02/20 01:51:46;;;;;;;11.18;6.25;;;;;;;6.40;84.20;101492.53;2520866;28;20576;-78
2024/02/20 01:53:02;;;;;;;10.95;6.35;;;;;;;6.39;84.37;101488.19;2516087;28;20239;-78
2024/02/20 01:54:15;;;;;;;11.57;5.35;;;;;;;6.40;84.40;101497.72;2518333;28;20472;-78
2024/02/20 01:55:30;;;;;;;7.50;5.10;;;;;;;6.40;84.48;101494.25;2519774;28;20052;-77
2024/02/20 01:56:43;;;;;;;8.95;5.00;;;;;;;6.39;84.63;101495.97;2514630;28;20050;-76
2024/02/20 01:57:58;;;;;;;9.40;5.82;;;;;;;6.41;84.64;101502.06;2520774;28;20430;-78
2024/02/20 01:59:11;;;;;;;10.77;6.53;;;;;;;6.41;84.66;101503.78;2517507;28;20056;-78
2024/02/20 02:00:27;;;;;;;14.52;6.57;;;;;;;6.42;84.86;101501.22;2516525;28;20049;-78
2024/02/20 02:01:40;;;;;;;12.23;6.65;;;;;;;6.44;84.87;101506.44;2521144;28;20046;-77
2024/02/20 02:02:56;;;;;;;8.63;4.80;;;;;;;6.45;84.93;101503.88;2514641;28;20088;-78
2024/02/20 02:04:10;;;;;;;11.07;4.90;;;;;;;6.48;84.88;101506.56;2518536;28;20122;-77
2024/02/20 02:05:24;;;;;;;15.07;6.07;;;;;;;6.51;85.11;101505.75;2519008;28;20418;-78
2024/02/20 02:06:38;;;;;;;9.35;5.85;;;;;;;6.53;85.21;101504.94;2515430;28;20047;-77
2024/02/20 02:07:54;;;;;;;14.55;6.85;;;;;;;6.55;85.16;101503.22;2514380;28;20054;-77
2024/02/20 02:09:07;;;;;;;11.20;5.57;;;;;;;6.55;85.05;101503.22;2519285;28;20078;-77
2024/02/20 02:10:21;;;;;;;10.65;5.65;;;;;;;6.57;85.08;101508.44;2518924;28;20067;-77
2024/02/20 02:11:36;;;;;;;14.27;5.93;;;;;;;6.59;85.20;101511.09;2515336;28;20089;-78
2024/02/20 02:12:50;;;;;;;12.18;5.47;;;;;;;6.61;85.29;101506.78;2520908;28;20423;-78
2024/02/20 02:14:04;;;;;;;24.58;6.70;;;;;;;6.64;85.30;101514.66;2516531;28;20156;-77
2024/02/20 02:15:18;;;;;;;11.45;6.32;;;;;;;6.66;85.50;101510.34;2518211;28;20053;-77
2024/02/20 02:16:32;;;;;;;8.63;5.47;;;;;;;6.68;85.33;101512.13;2519491;28;20042;-79
2024/02/20 02:17:46;;;;;;;13.75;5.50;;;;;;;6.71;85.08;101508.72;2514394;28;20492;-79
2024/02/20 02:19:01;;;;;;;11.77;5.78;;;;;;;6.72;85.34;101515.69;2516483;28;20050;-78
2024/02/20 02:20:15;;;;;;;8.85;5.80;;;;;;;6.73;85.32;101520.91;2522556;28;20423;-77
2024/02/20 02:21:29;;;;;;;11.80;8.25;;;;;;;6.73;85.30;101518.31;2517012;28;20053;-78
2024/02/20 02:22:44;;;;;;;10.68;4.93;;;;;;;6.74;85.34;101521.78;2514100;28;20054;-78
2024/02/20 02:23:57;;;;;;;11.30;5.85;;;;;;;6.73;85.46;101518.31;2520929;28;20041;-78
2024/02/20 02:25:12;;;;;;;8.65;6.07;;;;;;;6.74;85.27;101527.84;2517506;28;20058;-78
2024/02/20 02:26:27;;;;;;;17.27;8.25;;;;;;;6.73;85.21;101522.63;2517538;28;20050;-78
2024/02/20 02:27:42;;;;;;;10.65;4.80;;;;;;;6.72;85.29;101518.28;2521112;28;20229;-78
2024/02/20 02:28:55;;;;;;;9.13;4.93;;;;;;;6.73;85.11;101525.22;2522584;28;20513;-78
2024/02/20 02:30:11;;;;;;;10.13;5.53;;;;;;;6.71;84.96;101521.69;2517590;28;20121;-78
2024/02/20 02:31:24;;;;;;;11.05;5.30;;;;;;;6.70;85.05;101528.63;2517033;28;20039;-78
2024/02/20 02:32:39;;;;;;;8.07;5.07;;;;;;;6.70;85.29;101525.16;2520013;28;20046;-78
2024/02/20 02:33:53;;;;;;;7.05;4.78;;;;;;;6.68;85.03;101527.69;2514836;28;20088;-78
2024/02/20 02:35:09;;;;;;;11.18;5.15;;;;;;;6.67;85.06;101527.69;2519991;28;20054;-78
2024/02/20 02:36:24;;;;;;;7.07;4.35;;;;;;;6.67;85.17;101532.88;2518151;28;20049;-79
2024/02/20 02:37:39;;;;;;;11.85;4.93;;;;;;;6.64;85.22;101532.81;2515481;28;20046;-79
2024/02/20 02:38:52;;;;;;;10.27;4.65;;;;;;;6.61;85.03;101527.53;2514679;28;20047;-78
2024/02/20 02:40:09;;;;;;;11.95;5.57;;;;;;;6.59;85.13;101534.44;2519208;28;20052;-78
2024/02/20 02:41:24;;;;;;;10.27;4.63;;;;;;;6.56;85.01;101530.06;2518864;28;20073;-78
2024/02/20 02:42:41;;;;;;;14.70;7.70;;;;;;;6.53;84.97;101536.06;2522964;28;20485;-78
2024/02/20 02:43:54;;;;;;;8.57;5.15;;;;;;;6.51;85.07;101537.72;2513066;28;20061;-78
2024/02/20 02:45:09;;;;;;;7.97;5.18;;;;;;;6.47;84.94;101532.44;2516818;28;20149;-79
2024/02/20 02:46:22;;;;;;;7.40;4.75;;;;;;;6.43;84.72;101536.69;2517952;28;20046;-78
2024/02/20 02:47:37;;;;;;;9.02;4.32;;;;;;;6.39;84.85;101540.03;2520212;28;20056;-78
2024/02/20 02:48:50;;;;;;;11.68;5.15;;;;;;;6.35;84.99;101538.25;2522919;28;20065;-79
2024/02/20 02:50:05;;;;;;;7.28;4.40;;;;;;;6.29;84.82;101538.94;2520273;28;20058;-79
2024/02/20 02:51:19;;;;;;;8.52;4.35;;;;;;;6.26;84.81;101536.28;2518250;28;20042;-78
2024/02/20 02:52:34;;;;;;;8.13;4.07;;;;;;;6.20;84.76;101532.69;2522690;28;20121;-78
2024/02/20 02:53:47;;;;;;;9.88;5.63;;;;;;;6.14;84.76;101542.91;2523423;28;20064;-79
2024/02/20 02:55:01;;;;;;;5.25;4.25;;;;;;;6.07;84.84;101540.16;2521048;28;20061;-78
2024/02/20 02:56:15;;;;;;;5.93;4.97;;;;;;;6.02;84.62;101546.97;2517743;28;20044;-78
2024/02/20 02:57:29;;;;;;;7.82;3.40;;;;;;;5.95;84.51;101547.63;2543985;22;20200;-79
2024/02/20 02:58:44;;;;;;;9.55;4.13;;;;;;;5.91;84.60;101550.94;2514566;28;20046;-78
2024/02/20 02:59:59;;;;;;;6.68;4.72;;;;;;;5.86;84.65;101550.84;2514338;28;20088;-78
2024/02/20 03:01:12;;;;;;;8.95;5.18;;;;;;;5.80;84.70;101547.22;2514652;28;20483;-79
2024/02/20 03:02:27;;;;;;;9.75;4.28;;;;;;;5.79;84.91;101555.84;2508830;28;20053;-78
2024/02/20 03:03:41;;;;;;;10.65;4.47;;;;;;;5.77;84.81;101562.69;2512380;28;20148;-78
2024/02/20 03:04:56;;;;;;;12.27;4.05;;;;;;;5.75;84.88;101561.78;2514714;28;20050;-79
2024/02/20 03:06:10;;;;;;;9.77;3.67;;;;;;;5.71;84.87;101552.19;2510748;28;20046;-78
2024/02/20 03:07:24;;;;;;;8.80;4.45;;;;;;;5.68;84.77;101561.63;2510038;28;20068;-79
2024/02/20 03:08:38;;;;;;;7.70;3.72;;;;;;;5.64;84.92;101559.78;2506623;28;20038;-78
2024/02/20 03:09:52;;;;;;;9.40;4.18;;;;;;;5.59;84.82;101558.78;2504596;28;20054;-78
2024/02/20 03:11:07;;;;;;;6.25;3.40;;;;;;;5.54;84.47;101557.78;2501353;28;20054;-78
2024/02/20 03:12:21;;;;;;;11.68;4.18;;;;;;;5.50;84.76;101574.09;2494781;28;20049;-77
2024/02/20 03:13:34;;;;;;;10.35;5.05;;;;;;;5.44;84.68;101567.00;2494885;28;20058;-78
2024/02/20 03:14:52;;;;;;;7.93;3.78;;;;;;;5.41;84.80;101571.25;2495107;28;20053;-78
2024/02/20 03:16:06;;;;;;;8.55;4.75;;;;;;;5.37;84.86;101574.56;2500363;28;20039;-77
2024/02/20 03:17:20;;;;;;;12.90;5.07;;;;;;;5.33;84.78;101570.16;2509914;28;20126;-77
2024/02/20 03:18:36;;;;;;;13.38;3.95;;;;;;;5.29;85.04;101573.47;2502679;28;20070;-76
2024/02/20 03:19:50;;;;;;;10.02;5.85;;;;;;;5.25;84.98;101573.41;2513110;28;20057;-76
2024/02/20 03:21:06;;;;;;;7.68;4.13;;;;;;;5.23;85.06;101580.25;2513794;28;20051;-77
2024/02/20 03:22:20;;;;;;;11.70;4.60;;;;;;;5.21;85.01;101575.84;2513865;28;20047;-77
2024/02/20 03:23:34;;;;;;;8.77;4.55;;;;;;;5.19;85.02;101578.41;2511062;28;20043;-78
2024/02/20 03:24:48;;;;;;;8.02;4.35;;;;;;;5.16;85.24;101578.34;2503889;28;20077;-78
2024/02/20 03:26:03;;;;;;;12.27;4.57;;;;;;;5.17;85.19;101586.97;2500260;28;20416;-78
2024/02/20 03:27:17;;;;;;;17.13;4.72;;;;;;;5.18;85.41;101588.72;2509822;28;20053;-78
2024/02/20 03:28:31;;;;;;;10.30;5.13;;;;;;;5.18;85.38;101591.31;2504139;28;20039;-78
2024/02/20 03:29:45;;;;;;;8.45;3.92;;;;;;;5.17;85.44;101598.19;2496296;28;20089;-77
2024/02/20 03:31:00;;;;;;;8.18;3.88;;;;;;;5.18;85.59;101597.34;2495035;28;20468;-78
2024/02/20 03:32:15;;;;;;;6.75;4.05;;;;;;;5.21;85.69;101601.72;2497909;28;20047;-78
2024/02/20 03:33:30;;;;;;;7.45;4.05;;;;;;;5.23;85.61;101600.06;2504499;28;20050;-78
2024/02/20 03:34:44;;;;;;;12.30;5.05;;;;;;;5.24;85.60;101605.31;2511891;28;20129;-78
2024/02/20 03:35:58;;;;;;;9.30;3.70;;;;;;;5.25;85.76;101604.47;2510887;28;20047;-78
2024/02/20 03:37:12;;;;;;;7.15;4.60;;;;;;;5.29;85.70;101601.94;2497389;28;20081;-77
2024/02/20 03:38:27;;;;;;;11.82;3.90;;;;;;;5.30;85.75;101603.72;2504690;28;20047;-78
2024/02/20 03:39:41;;;;;;;8.40;4.93;;;;;;;5.33;85.66;101611.56;2496957;28;20078;-78
2024/02/20 03:40:55;;;;;;;6.88;3.75;;;;;;;5.34;85.71;101618.50;2495129;28;20527;-79
2024/02/20 03:42:09;;;;;;;12.32;4.82;;;;;;;5.36;85.88;101611.66;2494650;28;20047;-78
2024/02/20 03:43:22;;;;;;;10.02;4.53;;;;;;;5.36;85.83;101611.66;2504616;28;20046;-77
2024/02/20 03:44:38;;;;;;;8.18;4.57;;;;;;;5.38;85.97;101622.94;2507271;28;20452;-77
2024/02/20 03:45:51;;;;;;;8.25;5.03;;;;;;;5.37;85.48;101626.34;2504314;28;20129;-77
2024/02/20 03:47:07;;;;;;;15.35;4.57;;;;;;;5.39;85.88;101627.25;2504572;28;20534;-78
2024/02/20 03:48:21;;;;;;;8.38;4.15;;;;;;;5.38;85.66;101630.69;2503569;28;20043;-79
2024/02/20 03:49:35;;;;;;;9.70;5.65;;;;;;;5.39;85.87;101627.25;2504628;28;20159;-78
2024/02/20 03:50:48;;;;;;;6.05;3.45;;;;;;;5.39;85.67;101633.31;2501873;28;20054;-77
2024/02/20 03:52:03;;;;;;;6.10;4.05;;;;;;;5.40;85.75;101629.91;2513376;28;20050;-78
2024/02/20 03:53:17;;;;;;;9.10;4.05;;;;;;;5.41;85.81;101625.59;2509340;28;20051;-78
2024/02/20 03:54:32;;;;;;;7.38;3.22;;;;;;;5.42;85.89;101635.09;2504074;28;20043;-78
2024/02/20 03:55:48;;;;;;;7.63;3.92;;;;;;;5.43;85.98;101627.41;2503252;28;20097;-78
2024/02/20 03:57:03;;;;;;;9.88;4.57;;;;;;;5.46;86.05;101636.97;2494023;28;20059;-78
2024/02/20 03:58:18;;;;;;;10.15;3.85;;;;;;;5.50;85.81;101630.16;2499002;28;20097;-78
2024/02/20 03:59:31;;;;;;;12.75;6.00;;;;;;;5.51;85.85;101632.78;2506335;28;20051;-78
2024/02/20 04:00:46;;;;;;;7.35;3.63;;;;;;;5.53;85.96;101632.84;2506739;28;20764;-78
2024/02/20 04:02:00;;;;;;;11.20;5.75;;;;;;;5.54;85.81;101638.06;2498148;28;20049;-78
2024/02/20 04:03:16;;;;;;;39.47;35.42;;;;;;;5.56;85.98;101636.38;2506520;28;20057;-78
2024/02/20 04:04:29;;;;;;;12.93;8.85;;;;;;;5.58;85.71;101639.91;2503922;28;20073;-78
2024/02/20 04:05:43;;;;;;;30.60;17.40;;;;;;;5.58;85.73;101629.53;2503880;28;20153;-78
2024/02/20 04:06:57;;;;;;;12.38;6.75;;;;;;;5.60;85.65;101633.06;2502443;28;20050;-78
2024/02/20 04:08:12;;;;;;;22.02;12.00;;;;;;;5.63;85.67;101635.72;2496546;28;20054;-78
2024/02/20 04:09:26;;;;;;;13.65;9.00;;;;;;;5.66;85.86;101638.41;2504190;28;20058;-76
2024/02/20 04:10:40;;;;;;;55.63;47.38;;;;;;;5.69;85.67;101642.78;2511004;28;20050;-78
2024/02/20 04:11:54;;;;;;;52.78;39.33;;;;;;;5.74;85.45;101655.88;2511987;28;20066;-78
2024/02/20 04:13:09;;;;;;;13.60;8.10;;;;;;;5.77;85.69;101643.00;2503827;28;20051;-78
2024/02/20 04:14:22;;;;;;;9.02;6.72;;;;;;;5.79;85.50;101642.19;2503442;28;20424;-78
2024/02/20 04:15:37;;;;;;;10.95;3.90;;;;;;;5.81;85.64;101643.13;2503463;28;20078;-77
2024/02/20 04:16:51;;;;;;;13.40;5.30;;;;;;;5.85;85.38;101644.94;2503479;28;20054;-78
2024/02/20 04:18:06;;;;;;;25.48;14.98;;;;;;;5.87;85.12;101645.00;2503890;28;20054;-78
2024/02/20 04:19:21;;;;;;;8.57;3.47;;;;;;;5.90;85.29;101647.66;2503641;28;20051;-78
2024/02/20 04:20:35;;;;;;;11.75;5.28;;;;;;;5.92;85.16;101642.53;2496953;28;20136;-78
2024/02/20 04:21:48;;;;;;;12.63;8.00;;;;;;;5.92;85.35;101643.41;2493803;28;20043;-78
2024/02/20 04:23:06;;;;;;;8.70;5.30;;;;;;;5.94;85.06;101652.13;2496302;28;20058;-78
2024/02/20 04:24:20;;;;;;;16.63;6.28;;;;;;;5.94;85.08;101654.72;2503115;28;20046;-78
2024/02/20 04:25:34;;;;;;;11.90;4.85;;;;;;;5.96;85.02;101653.03;2504313;28;20464;-78
2024/02/20 04:26:48;;;;;;;11.15;7.05;;;;;;;5.98;85.03;101658.25;2503430;28;20051;-77
2024/02/20 04:28:02;;;;;;;14.10;3.95;;;;;;;6.00;84.97;101654.00;2495525;28;20655;-78
2024/02/20 04:29:15;;;;;;;6.78;4.30;;;;;;;6.01;84.75;101659.19;2503103;28;20050;-79
2024/02/20 04:30:30;;;;;;;10.93;4.05;;;;;;;6.02;84.93;101657.50;2503553;28;20050;-78
2024/02/20 04:31:43;;;;;;;8.00;5.00;;;;;;;6.04;84.54;101666.19;2496070;28;20054;-78
2024/02/20 04:32:58;;;;;;;5.78;3.42;;;;;;;6.05;84.48;101665.38;2510804;28;20054;-79
2024/02/20 04:34:11;;;;;;;4.38;2.88;;;;;;;6.06;84.53;101672.28;2494138;28;20516;-78
2024/02/20 04:35:27;;;;;;;10.70;4.55;;;;;;;6.07;84.70;101661.97;2498369;28;20042;-77
2024/02/20 04:36:41;;;;;;;9.05;3.35;;;;;;;6.09;84.56;101675.84;2502947;28;20043;-77
2024/02/20 04:37:55;;;;;;;11.02;3.50;;;;;;;6.10;84.41;101667.22;2510124;28;20488;-78
2024/02/20 04:39:10;;;;;;;7.32;3.55;;;;;;;6.12;84.60;101677.66;2494477;28;20059;-78
2024/02/20 04:40:24;;;;;;;7.00;3.00;;;;;;;6.13;84.65;101669.03;2493270;28;20043;-77
2024/02/20 04:41:38;;;;;;;5.35;3.58;;;;;;;6.15;84.36;101671.66;2507493;28;20050;-78
2024/02/20 04:42:52;;;;;;;10.27;4.15;;;;;;;6.16;84.28;101665.63;2512183;28;20077;-77
2024/02/20 04:44:07;;;;;;;6.80;2.80;;;;;;;6.18;84.28;101669.16;2503396;28;20055;-77
2024/02/20 04:45:20;;;;;;;8.23;3.35;;;;;;;6.18;84.30;101670.03;2503442;28;20051;-76
2024/02/20 04:46:34;;;;;;;11.68;3.50;;;;;;;6.19;84.17;101670.88;2504196;28;20077;-77
2024/02/20 04:47:48;;;;;;;5.57;4.03;;;;;;;6.18;83.96;101671.75;2494490;28;20051;-78
2024/02/20 04:49:03;;;;;;;9.02;3.60;;;;;;;6.17;83.79;101668.28;2497474;28;20061;-78
2024/02/20 04:50:17;;;;;;;7.88;4.30;;;;;;;6.15;83.72;101675.13;2505683;28;20492;-78
2024/02/20 04:51:35;;;;;;;7.85;3.85;;;;;;;6.13;83.91;101671.63;2499313;28;20109;-78
2024/02/20 04:52:49;;;;;;;13.07;3.35;;;;;;;6.13;83.85;101678.53;2503320;28;20054;-77
2024/02/20 04:54:03;;;;;;;14.23;3.67;;;;;;;6.12;83.82;101675.06;2503444;28;20047;-77
2024/02/20 04:55:17;;;;;;;6.57;3.60;;;;;;;6.13;83.85;101671.63;2507037;28;20050;-77
2024/02/20 04:56:31;;;;;;;9.45;3.08;;;;;;;6.13;83.80;101674.22;2502116;28;20044;-78
2024/02/20 04:57:44;;;;;;;10.05;3.70;;;;;;;6.11;83.72;101671.56;2500886;28;20058;-78
2024/02/20 04:58:59;;;;;;;8.45;3.00;;;;;;;6.15;83.81;101674.25;2505676;28;20050;-76
2024/02/20 05:00:13;;;;;;;14.27;3.10;;;;;;;6.15;83.67;101679.44;2509787;28;20074;-78
2024/02/20 05:01:28;;;;;;;7.63;3.90;;;;;;;6.15;83.62;101685.50;2498800;28;20047;-77
2024/02/20 05:02:42;;;;;;;6.40;3.65;;;;;;;6.14;83.72;101681.13;2508535;28;20749;-78
2024/02/20 05:03:56;;;;;;;9.80;4.30;;;;;;;6.15;83.75;101684.63;2503806;28;20047;-78
2024/02/20 05:05:10;;;;;;;4.88;2.85;;;;;;;6.16;83.74;101694.16;2497618;28;20058;-78
2024/02/20 05:06:24;;;;;;;10.02;5.47;;;;;;;6.16;83.39;101691.56;2504176;28;20069;-77
2024/02/20 05:07:39;;;;;;;9.07;3.42;;;;;;;6.17;83.65;101682.94;2503971;28;20356;-78
2024/02/20 05:08:53;;;;;;;15.15;3.40;;;;;;;6.19;83.54;101691.63;2504540;28;20145;-78
2024/02/20 05:10:07;;;;;;;11.90;3.97;;;;;;;6.19;83.80;101692.50;2507736;28;20050;-78
2024/02/20 05:11:22;;;;;;;10.13;4.57;;;;;;;6.20;83.62;101689.09;2515088;28;20046;-78
2024/02/20 05:12:36;;;;;;;8.07;2.78;;;;;;;6.22;83.58;101692.59;2502436;28;20428;-77
2024/02/20 05:13:51;;;;;;;9.40;3.60;;;;;;;6.23;83.51;101694.34;2503634;28;20047;-78
2024/02/20 05:15:05;;;;;;;9.65;2.97;;;;;;;6.22;83.50;101687.41;2497839;28;20076;-78
2024/02/20 05:16:19;;;;;;;11.32;4.07;;;;;;;6.23;83.74;101696.94;2505174;28;20043;-77
2024/02/20 05:17:33;;;;;;;8.75;3.75;;;;;;;6.23;83.76;101696.94;2505184;28;20074;-78
2024/02/20 05:18:47;;;;;;;17.25;4.38;;;;;;;6.23;83.53;101694.34;2504992;28;20492;-77
2024/02/20 05:20:01;;;;;;;13.02;4.45;;;;;;;6.24;83.55;101690.03;2504970;28;20605;-78
2024/02/20 05:21:15;;;;;;;9.63;3.30;;;;;;;6.24;83.35;101692.63;2504910;28;20047;-78
2024/02/20 05:22:29;;;;;;;11.00;3.30;;;;;;;6.24;83.35;101684.84;2500560;28;20404;-78
2024/02/20 05:23:44;;;;;;;10.35;4.10;;;;;;;6.22;83.21;101690.00;2509065;28;20060;-78
2024/02/20 05:24:58;;;;;;;9.13;4.05;;;;;;;6.22;83.40;101687.41;2496672;28;20504;-78
2024/02/20 05:26:12;;;;;;;11.65;4.25;;;;;;;6.21;83.44;101688.25;2498727;28;20065;-78
2024/02/20 05:27:26;;;;;;;9.25;3.53;;;;;;;6.20;83.36;101689.09;2510067;28;20139;-78
2024/02/20 05:28:40;;;;;;;9.50;4.25;;;;;;;6.20;83.30;101689.09;2515210;28;20042;-78
2024/02/20 05:29:54;;;;;;;13.20;4.00;;;;;;;6.20;83.33;101694.28;2498386;28;20055;-77
2024/02/20 05:31:26;;;;;;;8.30;4.03;;;;;;;6.22;83.34;101696.88;2511403;28;20046;-79
2024/02/20 05:32:39;;;;;;;9.90;3.63;;;;;;;6.21;83.28;101689.97;2501135;28;20099;-79
2024/02/20 05:33:53;;;;;;;9.00;5.68;;;;;;;6.21;83.31;101695.16;2505980;28;20500;-79
2024/02/20 05:35:09;;;;;;;9.80;3.50;;;;;;;6.21;83.44;101700.31;2505349;28;20050;-78
2024/02/20 05:36:23;;;;;;;6.97;3.92;;;;;;;6.20;82.96;101702.06;2504896;28;20043;-79
2024/02/20 05:37:37;;;;;;;6.68;4.43;;;;;;;6.20;83.32;101698.59;2499612;28;20153;-79
2024/02/20 05:38:52;;;;;;;15.40;4.43;;;;;;;6.20;83.09;101701.19;2511555;28;20046;-79
2024/02/20 05:40:11;;;;;;;10.95;3.15;;;;;;;6.18;82.98;101701.13;2496817;28;20044;-79
2024/02/20 05:41:25;;;;;;;9.25;4.45;;;;;;;6.17;83.03;101694.19;2504964;28;20130;-78
2024/02/20 05:42:39;;;;;;;9.07;3.30;;;;;;;6.16;83.14;101702.78;2505012;28;20050;-77
2024/02/20 05:43:57;;;;;;;9.30;3.70;;;;;;;6.15;83.07;101703.63;2512349;28;20085;-78
2024/02/20 05:45:11;;;;;;;8.93;3.92;;;;;;;6.14;82.95;101698.41;2495338;28;20072;-78
2024/02/20 05:46:26;;;;;;;19.00;4.68;;;;;;;6.15;82.87;101711.41;2495490;28;20051;-78
2024/02/20 05:47:41;;;;;;;6.38;3.40;;;;;;;6.16;82.98;101712.28;2501350;28;20055;-78